sensor_id;sensor_type;location;lat;lon;timestamp;P1;durP1;ratioP1;P2;durP2;ratioP2
31692;SDS011;37436;53.230;6.614;2022-07-12T00:01:22;4.88;;;3.22;;
31692;SDS011;37436;53.230;6.614;2022-07-12T00:03:48;4.57;;;3.30;;
31692;SDS011;37436;53.230;6.614;2022-07-12T00:06:14;5.43;;;2.92;;
31692;SDS011;37436;53.230;6.614;2022-07-12T00:08:40;6.85;;;3.25;;
31692;SDS011;37436;53.230;6.614;2022-07-12T00:11:06;5.28;;;3.53;;
31692;SDS011;37436;53.230;6.614;2022-07-12T00:13:33;5.53;;;3.30;;
31692;SDS011;37436;53.230;6.614;2022-07-12T00:15:59;4.50;;;3.40;;
31692;SDS011;37436;53.230;6.614;2022-07-12T00:18:25;7.40;;;3.97;;
31692;SDS011;37436;53.230;6.614;2022-07-12T00:20:51;4.90;;;3.50;;
31692;SDS011;37436;53.230;6.614;2022-07-12T00:23:17;5.45;;;3.75;;
31692;SDS011;37436;53.230;6.614;2022-07-12T00:25:43;7.15;;;3.88;;
31692;SDS011;37436;53.230;6.614;2022-07-12T00:28:09;6.20;;;4.13;;
31692;SDS011;37436;53.230;6.614;2022-07-12T00:30:35;5.15;;;3.80;;
31692;SDS011;37436;53.230;6.614;2022-07-12T00:33:01;7.55;;;3.90;;
31692;SDS011;37436;53.230;6.614;2022-07-12T00:35:27;5.68;;;3.95;;
31692;SDS011;37436;53.230;6.614;2022-07-12T00:37:53;4.82;;;3.38;;
31692;SDS011;37436;53.230;6.614;2022-07-12T00:40:19;6.97;;;4.13;;
31692;SDS011;37436;53.230;6.614;2022-07-12T00:42:45;7.70;;;3.90;;
31692;SDS011;37436;53.230;6.614;2022-07-12T00:45:11;5.97;;;4.15;;
31692;SDS011;37436;53.230;6.614;2022-07-12T00:47:38;6.05;;;4.25;;
31692;SDS011;37436;53.230;6.614;2022-07-12T00:50:16;6.25;;;3.92;;
31692;SDS011;37436;53.230;6.614;2022-07-12T00:52:42;5.82;;;4.07;;
31692;SDS011;37436;53.230;6.614;2022-07-12T00:55:09;6.45;;;4.38;;
31692;SDS011;37436;53.230;6.614;2022-07-12T00:57:36;6.45;;;4.10;;
31692;SDS011;37436;53.230;6.614;2022-07-12T01:00:03;6.00;;;4.25;;
31692;SDS011;37436;53.230;6.614;2022-07-12T01:02:30;7.00;;;4.50;;
31692;SDS011;37436;53.230;6.614;2022-07-12T01:04:56;7.57;;;3.40;;
31692;SDS011;37436;53.230;6.614;2022-07-12T01:07:25;5.18;;;3.85;;
31692;SDS011;37436;53.230;6.614;2022-07-12T01:09:51;6.60;;;4.32;;
31692;SDS011;37436;53.230;6.614;2022-07-12T01:12:24;5.78;;;3.85;;
31692;SDS011;37436;53.230;6.614;2022-07-12T01:14:50;4.30;;;3.33;;
31692;SDS011;37436;53.230;6.614;2022-07-12T01:17:20;8.10;;;3.95;;
31692;SDS011;37436;53.230;6.614;2022-07-12T01:19:54;6.75;;;3.22;;
31692;SDS011;37436;53.230;6.614;2022-07-12T01:22:25;6.22;;;3.40;;
31692;SDS011;37436;53.230;6.614;2022-07-12T01:24:52;5.57;;;3.92;;
31692;SDS011;37436;53.230;6.614;2022-07-12T01:27:18;6.47;;;3.70;;
31692;SDS011;37436;53.230;6.614;2022-07-12T01:29:44;5.78;;;4.05;;
31692;SDS011;37436;53.230;6.614;2022-07-12T01:32:10;5.50;;;3.40;;
31692;SDS011;37436;53.230;6.614;2022-07-12T01:37:17;6.75;;;3.53;;
31692;SDS011;37436;53.230;6.614;2022-07-12T01:39:44;8.00;;;3.90;;
31692;SDS011;37436;53.230;6.614;2022-07-12T01:42:10;3.92;;;3.38;;
31692;SDS011;37436;53.230;6.614;2022-07-12T01:44:36;10.07;;;3.92;;
31692;SDS011;37436;53.230;6.614;2022-07-12T01:47:03;5.82;;;3.95;;
31692;SDS011;37436;53.230;6.614;2022-07-12T01:49:29;7.22;;;3.65;;
31692;SDS011;37436;53.230;6.614;2022-07-12T01:51:55;5.45;;;3.60;;
31692;SDS011;37436;53.230;6.614;2022-07-12T01:54:21;6.30;;;3.35;;
31692;SDS011;37436;53.230;6.614;2022-07-12T01:56:49;5.45;;;3.35;;
31692;SDS011;37436;53.230;6.614;2022-07-12T01:59:17;3.47;;;2.97;;
31692;SDS011;37436;53.230;6.614;2022-07-12T02:01:43;4.88;;;3.28;;
31692;SDS011;37436;53.230;6.614;2022-07-12T02:04:09;3.70;;;3.08;;
31692;SDS011;37436;53.230;6.614;2022-07-12T02:06:35;5.32;;;3.42;;
31692;SDS011;37436;53.230;6.614;2022-07-12T02:09:02;3.55;;;2.85;;
31692;SDS011;37436;53.230;6.614;2022-07-12T02:11:28;4.47;;;3.47;;
31692;SDS011;37436;53.230;6.614;2022-07-12T02:13:54;6.40;;;3.58;;
31692;SDS011;37436;53.230;6.614;2022-07-12T02:16:20;6.00;;;4.10;;
31692;SDS011;37436;53.230;6.614;2022-07-12T02:18:46;6.22;;;3.90;;
31692;SDS011;37436;53.230;6.614;2022-07-12T02:21:12;6.55;;;4.18;;
31692;SDS011;37436;53.230;6.614;2022-07-12T02:23:38;5.53;;;3.55;;
31692;SDS011;37436;53.230;6.614;2022-07-12T02:26:04;5.80;;;3.35;;
31692;SDS011;37436;53.230;6.614;2022-07-12T02:28:30;5.13;;;3.53;;
31692;SDS011;37436;53.230;6.614;2022-07-12T02:30:56;4.93;;;3.33;;
31692;SDS011;37436;53.230;6.614;2022-07-12T02:33:23;6.43;;;3.25;;
31692;SDS011;37436;53.230;6.614;2022-07-12T02:35:49;6.93;;;3.53;;
31692;SDS011;37436;53.230;6.614;2022-07-12T02:38:15;5.18;;;3.47;;
31692;SDS011;37436;53.230;6.614;2022-07-12T02:40:41;5.30;;;3.67;;
31692;SDS011;37436;53.230;6.614;2022-07-12T02:43:26;7.97;;;3.95;;
31692;SDS011;37436;53.230;6.614;2022-07-12T02:45:53;5.95;;;4.00;;
31692;SDS011;37436;53.230;6.614;2022-07-12T02:48:19;7.78;;;3.60;;
31692;SDS011;37436;53.230;6.614;2022-07-12T02:50:45;5.80;;;3.90;;
31692;SDS011;37436;53.230;6.614;2022-07-12T02:53:11;7.68;;;4.15;;
31692;SDS011;37436;53.230;6.614;2022-07-12T02:55:38;8.48;;;4.57;;
31692;SDS011;37436;53.230;6.614;2022-07-12T02:58:04;6.47;;;4.32;;
31692;SDS011;37436;53.230;6.614;2022-07-12T03:00:31;9.95;;;4.95;;
31692;SDS011;37436;53.230;6.614;2022-07-12T03:02:57;7.05;;;4.95;;
31692;SDS011;37436;53.230;6.614;2022-07-12T03:05:23;7.45;;;4.35;;
31692;SDS011;37436;53.230;6.614;2022-07-12T03:07:49;9.52;;;4.60;;
31692;SDS011;37436;53.230;6.614;2022-07-12T03:10:15;8.05;;;4.13;;
31692;SDS011;37436;53.230;6.614;2022-07-12T03:12:41;8.60;;;5.18;;
31692;SDS011;37436;53.230;6.614;2022-07-12T03:15:07;6.53;;;4.85;;
31692;SDS011;37436;53.230;6.614;2022-07-12T03:17:37;7.07;;;4.65;;
31692;SDS011;37436;53.230;6.614;2022-07-12T03:20:05;7.53;;;4.10;;
31692;SDS011;37436;53.230;6.614;2022-07-12T03:22:33;6.75;;;4.70;;
31692;SDS011;37436;53.230;6.614;2022-07-12T03:24:59;7.28;;;4.75;;
31692;SDS011;37436;53.230;6.614;2022-07-12T03:27:25;5.95;;;4.60;;
31692;SDS011;37436;53.230;6.614;2022-07-12T03:29:54;8.07;;;4.65;;
31692;SDS011;37436;53.230;6.614;2022-07-12T03:32:21;7.80;;;4.60;;
31692;SDS011;37436;53.230;6.614;2022-07-12T03:34:47;8.88;;;5.63;;
31692;SDS011;37436;53.230;6.614;2022-07-12T03:37:13;7.47;;;5.18;;
31692;SDS011;37436;53.230;6.614;2022-07-12T03:39:39;7.45;;;5.03;;
31692;SDS011;37436;53.230;6.614;2022-07-12T03:42:08;8.80;;;5.70;;
31692;SDS011;37436;53.230;6.614;2022-07-12T03:44:38;8.25;;;5.53;;
31692;SDS011;37436;53.230;6.614;2022-07-12T03:47:13;11.60;;;5.57;;
31692;SDS011;37436;53.230;6.614;2022-07-12T03:49:52;7.75;;;5.78;;
31692;SDS011;37436;53.230;6.614;2022-07-12T03:52:18;11.00;;;6.03;;
31692;SDS011;37436;53.230;6.614;2022-07-12T03:54:44;8.65;;;5.55;;
31692;SDS011;37436;53.230;6.614;2022-07-12T03:57:10;7.68;;;5.60;;
31692;SDS011;37436;53.230;6.614;2022-07-12T03:59:42;7.85;;;5.32;;
31692;SDS011;37436;53.230;6.614;2022-07-12T04:02:09;10.05;;;5.78;;
31692;SDS011;37436;53.230;6.614;2022-07-12T04:04:35;13.80;;;5.88;;
31692;SDS011;37436;53.230;6.614;2022-07-12T04:07:01;12.02;;;6.93;;
31692;SDS011;37436;53.230;6.614;2022-07-12T04:09:27;8.88;;;4.97;;
31692;SDS011;37436;53.230;6.614;2022-07-12T04:11:53;16.88;;;6.95;;
31692;SDS011;37436;53.230;6.614;2022-07-12T04:14:19;16.17;;;7.00;;
31692;SDS011;37436;53.230;6.614;2022-07-12T04:16:45;21.70;;;8.13;;
31692;SDS011;37436;53.230;6.614;2022-07-12T04:19:18;12.45;;;7.28;;
31692;SDS011;37436;53.230;6.614;2022-07-12T04:21:44;12.88;;;6.63;;
31692;SDS011;37436;53.230;6.614;2022-07-12T04:24:10;11.93;;;6.65;;
31692;SDS011;37436;53.230;6.614;2022-07-12T04:26:36;10.10;;;6.80;;
31692;SDS011;37436;53.230;6.614;2022-07-12T04:29:02;9.40;;;5.80;;
31692;SDS011;37436;53.230;6.614;2022-07-12T04:31:28;16.90;;;7.05;;
31692;SDS011;37436;53.230;6.614;2022-07-12T04:33:54;14.95;;;6.95;;
31692;SDS011;37436;53.230;6.614;2022-07-12T04:36:20;18.73;;;7.47;;
31692;SDS011;37436;53.230;6.614;2022-07-12T04:38:46;16.33;;;7.80;;
31692;SDS011;37436;53.230;6.614;2022-07-12T04:41:12;15.48;;;7.78;;
31692;SDS011;37436;53.230;6.614;2022-07-12T04:43:38;20.55;;;8.00;;
31692;SDS011;37436;53.230;6.614;2022-07-12T04:46:07;16.98;;;7.82;;
31692;SDS011;37436;53.230;6.614;2022-07-12T04:48:34;10.98;;;6.40;;
31692;SDS011;37436;53.230;6.614;2022-07-12T04:51:00;20.67;;;7.50;;
31692;SDS011;37436;53.230;6.614;2022-07-12T04:53:26;14.13;;;6.75;;
31692;SDS011;37436;53.230;6.614;2022-07-12T04:55:53;16.65;;;7.18;;
31692;SDS011;37436;53.230;6.614;2022-07-12T04:58:20;20.95;;;8.13;;
31692;SDS011;37436;53.230;6.614;2022-07-12T05:00:46;12.00;;;6.45;;
31692;SDS011;37436;53.230;6.614;2022-07-12T05:03:12;14.55;;;5.88;;
31692;SDS011;37436;53.230;6.614;2022-07-12T05:05:38;19.88;;;7.45;;
31692;SDS011;37436;53.230;6.614;2022-07-12T05:08:04;35.05;;;8.30;;
31692;SDS011;37436;53.230;6.614;2022-07-12T05:10:30;23.67;;;7.63;;
31692;SDS011;37436;53.230;6.614;2022-07-12T05:12:56;18.38;;;8.13;;
31692;SDS011;37436;53.230;6.614;2022-07-12T05:15:22;12.35;;;6.43;;
31692;SDS011;37436;53.230;6.614;2022-07-12T05:17:48;23.05;;;6.68;;
31692;SDS011;37436;53.230;6.614;2022-07-12T05:20:14;10.18;;;5.88;;
31692;SDS011;37436;53.230;6.614;2022-07-12T05:22:40;9.57;;;5.53;;
31692;SDS011;37436;53.230;6.614;2022-07-12T05:25:06;8.15;;;4.97;;
31692;SDS011;37436;53.230;6.614;2022-07-12T05:27:33;13.30;;;5.88;;
31692;SDS011;37436;53.230;6.614;2022-07-12T05:30:00;9.35;;;4.95;;
31692;SDS011;37436;53.230;6.614;2022-07-12T05:32:26;11.88;;;5.03;;
31692;SDS011;37436;53.230;6.614;2022-07-12T05:34:52;11.93;;;5.60;;
31692;SDS011;37436;53.230;6.614;2022-07-12T05:37:18;7.85;;;4.85;;
31692;SDS011;37436;53.230;6.614;2022-07-12T05:39:44;9.80;;;5.78;;
31692;SDS011;37436;53.230;6.614;2022-07-12T05:42:10;11.70;;;5.80;;
31692;SDS011;37436;53.230;6.614;2022-07-12T05:44:36;9.02;;;5.40;;
31692;SDS011;37436;53.230;6.614;2022-07-12T05:47:02;10.35;;;5.50;;
31692;SDS011;37436;53.230;6.614;2022-07-12T05:49:28;10.35;;;5.88;;
31692;SDS011;37436;53.230;6.614;2022-07-12T05:51:54;11.52;;;5.00;;
31692;SDS011;37436;53.230;6.614;2022-07-12T05:54:39;9.70;;;4.43;;
31692;SDS011;37436;53.230;6.614;2022-07-12T05:57:05;8.95;;;4.85;;
31692;SDS011;37436;53.230;6.614;2022-07-12T05:59:31;8.32;;;4.57;;
31692;SDS011;37436;53.230;6.614;2022-07-12T06:01:57;9.38;;;3.80;;
31692;SDS011;37436;53.230;6.614;2022-07-12T06:04:23;6.65;;;4.57;;
31692;SDS011;37436;53.230;6.614;2022-07-12T06:06:49;7.78;;;4.78;;
31692;SDS011;37436;53.230;6.614;2022-07-12T06:09:15;7.30;;;4.80;;
31692;SDS011;37436;53.230;6.614;2022-07-12T06:11:41;9.43;;;4.85;;
31692;SDS011;37436;53.230;6.614;2022-07-12T06:14:07;8.40;;;5.03;;
31692;SDS011;37436;53.230;6.614;2022-07-12T06:16:33;12.50;;;4.75;;
31692;SDS011;37436;53.230;6.614;2022-07-12T06:18:59;9.45;;;4.25;;
31692;SDS011;37436;53.230;6.614;2022-07-12T06:21:25;8.38;;;4.85;;
31692;SDS011;37436;53.230;6.614;2022-07-12T06:23:51;8.35;;;4.43;;
31692;SDS011;37436;53.230;6.614;2022-07-12T06:26:18;21.40;;;5.75;;
31692;SDS011;37436;53.230;6.614;2022-07-12T06:28:44;8.32;;;4.68;;
31692;SDS011;37436;53.230;6.614;2022-07-12T06:31:10;5.95;;;4.10;;
31692;SDS011;37436;53.230;6.614;2022-07-12T06:33:36;8.18;;;4.75;;
31692;SDS011;37436;53.230;6.614;2022-07-12T06:36:02;11.52;;;4.57;;
31692;SDS011;37436;53.230;6.614;2022-07-12T06:38:28;8.57;;;4.40;;
31692;SDS011;37436;53.230;6.614;2022-07-12T06:40:54;8.63;;;4.43;;
31692;SDS011;37436;53.230;6.614;2022-07-12T06:43:20;8.88;;;4.13;;
31692;SDS011;37436;53.230;6.614;2022-07-12T06:45:46;7.70;;;4.53;;
31692;SDS011;37436;53.230;6.614;2022-07-12T06:48:12;6.28;;;4.43;;
31692;SDS011;37436;53.230;6.614;2022-07-12T06:50:38;6.00;;;4.32;;
31692;SDS011;37436;53.230;6.614;2022-07-12T06:53:04;4.18;;;3.42;;
31692;SDS011;37436;53.230;6.614;2022-07-12T06:55:30;9.98;;;4.57;;
31692;SDS011;37436;53.230;6.614;2022-07-12T06:57:56;5.40;;;3.80;;
31692;SDS011;37436;53.230;6.614;2022-07-12T07:00:22;14.15;;;4.72;;
31692;SDS011;37436;53.230;6.614;2022-07-12T07:02:48;6.25;;;4.45;;
31692;SDS011;37436;53.230;6.614;2022-07-12T07:05:14;13.45;;;3.83;;
31692;SDS011;37436;53.230;6.614;2022-07-12T07:07:46;7.15;;;3.83;;
31692;SDS011;37436;53.230;6.614;2022-07-12T07:10:12;5.97;;;3.67;;
31692;SDS011;37436;53.230;6.614;2022-07-12T07:12:39;9.05;;;4.20;;
31692;SDS011;37436;53.230;6.614;2022-07-12T07:15:05;8.27;;;4.82;;
31692;SDS011;37436;53.230;6.614;2022-07-12T07:17:31;7.95;;;3.70;;
31692;SDS011;37436;53.230;6.614;2022-07-12T07:19:57;7.13;;;4.13;;
31692;SDS011;37436;53.230;6.614;2022-07-12T07:22:23;6.00;;;3.35;;
31692;SDS011;37436;53.230;6.614;2022-07-12T07:24:49;6.20;;;4.25;;
31692;SDS011;37436;53.230;6.614;2022-07-12T07:27:15;4.70;;;3.28;;
31692;SDS011;37436;53.230;6.614;2022-07-12T07:29:41;9.00;;;3.75;;
31692;SDS011;37436;53.230;6.614;2022-07-12T07:32:39;11.85;;;3.72;;
31692;SDS011;37436;53.230;6.614;2022-07-12T07:35:06;5.78;;;3.58;;
31692;SDS011;37436;53.230;6.614;2022-07-12T07:37:32;4.18;;;3.20;;
31692;SDS011;37436;53.230;6.614;2022-07-12T07:39:58;2.92;;;2.45;;
31692;SDS011;37436;53.230;6.614;2022-07-12T07:42:24;4.78;;;3.20;;
31692;SDS011;37436;53.230;6.614;2022-07-12T07:44:50;6.00;;;2.97;;
31692;SDS011;37436;53.230;6.614;2022-07-12T07:47:16;5.30;;;3.28;;
31692;SDS011;37436;53.230;6.614;2022-07-12T07:49:42;4.82;;;3.10;;
31692;SDS011;37436;53.230;6.614;2022-07-12T07:52:08;4.47;;;3.22;;
31692;SDS011;37436;53.230;6.614;2022-07-12T07:54:34;5.22;;;3.60;;
31692;SDS011;37436;53.230;6.614;2022-07-12T07:57:00;6.50;;;2.92;;
31692;SDS011;37436;53.230;6.614;2022-07-12T07:59:26;4.05;;;3.20;;
31692;SDS011;37436;53.230;6.614;2022-07-12T08:01:52;5.00;;;2.67;;
31692;SDS011;37436;53.230;6.614;2022-07-12T08:04:19;5.03;;;2.28;;
31692;SDS011;37436;53.230;6.614;2022-07-12T08:06:46;9.50;;;2.90;;
31692;SDS011;37436;53.230;6.614;2022-07-12T08:09:12;5.38;;;1.95;;
31692;SDS011;37436;53.230;6.614;2022-07-12T08:11:39;6.30;;;2.20;;
31692;SDS011;37436;53.230;6.614;2022-07-12T08:14:05;1.90;;;1.75;;
31692;SDS011;37436;53.230;6.614;2022-07-12T08:16:32;3.40;;;1.88;;
31692;SDS011;37436;53.230;6.614;2022-07-12T08:18:58;6.00;;;2.15;;
31692;SDS011;37436;53.230;6.614;2022-07-12T08:21:24;3.30;;;2.22;;
31692;SDS011;37436;53.230;6.614;2022-07-12T08:23:50;1.92;;;1.73;;
31692;SDS011;37436;53.230;6.614;2022-07-12T08:26:18;2.25;;;1.73;;
31692;SDS011;37436;53.230;6.614;2022-07-12T08:28:44;2.20;;;1.98;;
31692;SDS011;37436;53.230;6.614;2022-07-12T08:31:10;4.68;;;1.90;;
31692;SDS011;37436;53.230;6.614;2022-07-12T08:33:38;4.72;;;2.17;;
31692;SDS011;37436;53.230;6.614;2022-07-12T08:36:05;2.80;;;1.80;;
31692;SDS011;37436;53.230;6.614;2022-07-12T08:38:32;6.57;;;2.67;;
31692;SDS011;37436;53.230;6.614;2022-07-12T08:40:58;5.28;;;2.42;;
31692;SDS011;37436;53.230;6.614;2022-07-12T08:43:24;7.50;;;2.40;;
31692;SDS011;37436;53.230;6.614;2022-07-12T08:45:50;2.58;;;2.00;;
31692;SDS011;37436;53.230;6.614;2022-07-12T08:48:16;5.95;;;2.08;;
31692;SDS011;37436;53.230;6.614;2022-07-12T08:50:42;7.32;;;2.30;;
31692;SDS011;37436;53.230;6.614;2022-07-12T08:53:11;4.15;;;2.15;;
31692;SDS011;37436;53.230;6.614;2022-07-12T08:55:38;3.50;;;2.25;;
31692;SDS011;37436;53.230;6.614;2022-07-12T08:58:04;3.95;;;2.00;;
31692;SDS011;37436;53.230;6.614;2022-07-12T09:03:05;3.50;;;2.08;;
31692;SDS011;37436;53.230;6.614;2022-07-12T09:05:32;3.25;;;1.85;;
31692;SDS011;37436;53.230;6.614;2022-07-12T09:10:27;4.90;;;2.30;;
31692;SDS011;37436;53.230;6.614;2022-07-12T09:12:54;2.97;;;2.25;;
31692;SDS011;37436;53.230;6.614;2022-07-12T09:15:22;3.58;;;3.00;;
31692;SDS011;37436;53.230;6.614;2022-07-12T09:20:14;4.30;;;1.83;;
31692;SDS011;37436;53.230;6.614;2022-07-12T09:22:50;5.97;;;2.67;;
31692;SDS011;37436;53.230;6.614;2022-07-12T09:25:17;6.03;;;2.60;;
31692;SDS011;37436;53.230;6.614;2022-07-12T09:27:56;3.47;;;2.20;;
31692;SDS011;37436;53.230;6.614;2022-07-12T09:30:28;3.25;;;2.30;;
31692;SDS011;37436;53.230;6.614;2022-07-12T09:32:58;5.40;;;3.15;;
31692;SDS011;37436;53.230;6.614;2022-07-12T09:35:46;3.40;;;2.60;;
31692;SDS011;37436;53.230;6.614;2022-07-12T09:41:01;3.58;;;2.97;;
31692;SDS011;37436;53.230;6.614;2022-07-12T09:43:27;2.33;;;2.13;;
31692;SDS011;37436;53.230;6.614;2022-07-12T09:45:55;2.78;;;2.05;;
31692;SDS011;37436;53.230;6.614;2022-07-12T09:48:21;2.92;;;2.60;;
31692;SDS011;37436;53.230;6.614;2022-07-12T09:50:48;3.97;;;2.97;;
31692;SDS011;37436;53.230;6.614;2022-07-12T09:53:16;2.50;;;2.28;;
31692;SDS011;37436;53.230;6.614;2022-07-12T09:55:45;2.95;;;2.10;;
31692;SDS011;37436;53.230;6.614;2022-07-12T09:58:13;3.88;;;2.88;;
31692;SDS011;37436;53.230;6.614;2022-07-12T10:00:39;6.82;;;2.80;;
31692;SDS011;37436;53.230;6.614;2022-07-12T10:03:05;3.05;;;2.72;;
31692;SDS011;37436;53.230;6.614;2022-07-12T10:05:33;6.45;;;3.15;;
31692;SDS011;37436;53.230;6.614;2022-07-12T10:08:00;8.00;;;2.42;;
31692;SDS011;37436;53.230;6.614;2022-07-12T10:10:27;2.80;;;2.45;;
31692;SDS011;37436;53.230;6.614;2022-07-12T10:12:53;3.38;;;2.75;;
31692;SDS011;37436;53.230;6.614;2022-07-12T10:15:20;2.85;;;2.15;;
31692;SDS011;37436;53.230;6.614;2022-07-12T10:17:52;4.80;;;1.83;;
31692;SDS011;37436;53.230;6.614;2022-07-12T10:20:20;2.17;;;1.90;;
31692;SDS011;37436;53.230;6.614;2022-07-12T10:22:52;6.28;;;2.55;;
31692;SDS011;37436;53.230;6.614;2022-07-12T10:25:29;4.05;;;2.03;;
31692;SDS011;37436;53.230;6.614;2022-07-12T10:27:58;2.08;;;1.88;;
31692;SDS011;37436;53.230;6.614;2022-07-12T10:30:24;5.13;;;1.83;;
31692;SDS011;37436;53.230;6.614;2022-07-12T10:32:54;3.42;;;2.00;;
31692;SDS011;37436;53.230;6.614;2022-07-12T10:35:23;2.10;;;1.90;;
31692;SDS011;37436;53.230;6.614;2022-07-12T10:40:34;2.17;;;1.75;;
31692;SDS011;37436;53.230;6.614;2022-07-12T10:45:42;4.55;;;1.92;;
31692;SDS011;37436;53.230;6.614;2022-07-12T10:53:28;1.75;;;1.45;;
31692;SDS011;37436;53.230;6.614;2022-07-12T10:58:30;1.75;;;1.45;;
31692;SDS011;37436;53.230;6.614;2022-07-12T11:01:42;4.55;;;1.27;;
31692;SDS011;37436;53.230;6.614;2022-07-12T11:03:47;1.83;;;1.55;;
31692;SDS011;37436;53.230;6.614;2022-07-12T11:06:18;1.38;;;1.27;;
31692;SDS011;37436;53.230;6.614;2022-07-12T11:08:58;2.25;;;1.55;;
31692;SDS011;37436;53.230;6.614;2022-07-12T11:11:31;1.30;;;1.20;;
31692;SDS011;37436;53.230;6.614;2022-07-12T11:13:58;2.45;;;1.10;;
31692;SDS011;37436;53.230;6.614;2022-07-12T11:16:24;2.10;;;1.10;;
31692;SDS011;37436;53.230;6.614;2022-07-12T11:18:51;1.23;;;1.13;;
31692;SDS011;37436;53.230;6.614;2022-07-12T11:21:17;4.38;;;1.40;;
31692;SDS011;37436;53.230;6.614;2022-07-12T11:23:43;2.45;;;1.40;;
31692;SDS011;37436;53.230;6.614;2022-07-12T11:26:10;1.17;;;1.10;;
31692;SDS011;37436;53.230;6.614;2022-07-12T11:28:36;1.23;;;1.13;;
31692;SDS011;37436;53.230;6.614;2022-07-12T11:31:07;1.10;;;1.00;;
31692;SDS011;37436;53.230;6.614;2022-07-12T11:33:34;1.27;;;1.02;;
31692;SDS011;37436;53.230;6.614;2022-07-12T11:36:02;1.50;;;1.20;;
31692;SDS011;37436;53.230;6.614;2022-07-12T11:38:29;1.05;;;1.05;;
31692;SDS011;37436;53.230;6.614;2022-07-12T11:40:55;2.55;;;1.17;;
31692;SDS011;37436;53.230;6.614;2022-07-12T11:43:22;1.58;;;1.00;;
31692;SDS011;37436;53.230;6.614;2022-07-12T11:45:48;1.10;;;1.10;;
31692;SDS011;37436;53.230;6.614;2022-07-12T11:48:14;1.75;;;1.50;;
31692;SDS011;37436;53.230;6.614;2022-07-12T11:50:43;9.77;;;1.30;;
31692;SDS011;37436;53.230;6.614;2022-07-12T11:53:28;7.22;;;1.20;;
31692;SDS011;37436;53.230;6.614;2022-07-12T11:55:55;2.15;;;1.20;;
31692;SDS011;37436;53.230;6.614;2022-07-12T11:58:22;0.90;;;0.90;;
31692;SDS011;37436;53.230;6.614;2022-07-12T12:00:48;3.97;;;1.17;;
31692;SDS011;37436;53.230;6.614;2022-07-12T12:03:15;1.77;;;1.00;;
31692;SDS011;37436;53.230;6.614;2022-07-12T12:05:48;1.15;;;1.00;;
31692;SDS011;37436;53.230;6.614;2022-07-12T12:08:14;2.05;;;1.25;;
31692;SDS011;37436;53.230;6.614;2022-07-12T12:11:02;2.17;;;1.30;;
31692;SDS011;37436;53.230;6.614;2022-07-12T12:13:28;4.72;;;1.55;;
31692;SDS011;37436;53.230;6.614;2022-07-12T12:15:56;2.08;;;1.17;;
31692;SDS011;37436;53.230;6.614;2022-07-12T12:20:58;2.38;;;1.20;;
31692;SDS011;37436;53.230;6.614;2022-07-12T12:23:24;4.30;;;1.40;;
31692;SDS011;37436;53.230;6.614;2022-07-12T12:25:51;3.28;;;1.10;;
31692;SDS011;37436;53.230;6.614;2022-07-12T12:28:17;2.95;;;1.10;;
31692;SDS011;37436;53.230;6.614;2022-07-12T12:30:53;1.25;;;1.15;;
31692;SDS011;37436;53.230;6.614;2022-07-12T12:33:36;1.45;;;1.20;;
31692;SDS011;37436;53.230;6.614;2022-07-12T12:38:44;7.22;;;1.35;;
31692;SDS011;37436;53.230;6.614;2022-07-12T12:41:10;1.60;;;1.20;;
31692;SDS011;37436;53.230;6.614;2022-07-12T12:43:37;6.78;;;1.45;;
31692;SDS011;37436;53.230;6.614;2022-07-12T12:46:04;5.35;;;1.40;;
31692;SDS011;37436;53.230;6.614;2022-07-12T12:48:43;3.70;;;1.52;;
31692;SDS011;37436;53.230;6.614;2022-07-12T12:51:11;1.30;;;1.20;;
31692;SDS011;37436;53.230;6.614;2022-07-12T12:53:38;1.65;;;1.08;;
31692;SDS011;37436;53.230;6.614;2022-07-12T12:56:09;1.30;;;1.13;;
31692;SDS011;37436;53.230;6.614;2022-07-12T12:58:36;1.13;;;1.10;;
31692;SDS011;37436;53.230;6.614;2022-07-12T13:01:02;1.20;;;1.00;;
31692;SDS011;37436;53.230;6.614;2022-07-12T13:03:35;1.20;;;1.10;;
31692;SDS011;37436;53.230;6.614;2022-07-12T13:06:01;1.30;;;1.00;;
31692;SDS011;37436;53.230;6.614;2022-07-12T13:08:29;1.20;;;1.10;;
31692;SDS011;37436;53.230;6.614;2022-07-12T13:10:56;1.67;;;1.23;;
31692;SDS011;37436;53.230;6.614;2022-07-12T13:13:40;4.65;;;1.15;;
31692;SDS011;37436;53.230;6.614;2022-07-12T13:16:06;3.90;;;1.17;;
31692;SDS011;37436;53.230;6.614;2022-07-12T13:18:32;1.38;;;1.13;;
31692;SDS011;37436;53.230;6.614;2022-07-12T13:20:58;2.33;;;1.45;;
31692;SDS011;37436;53.230;6.614;2022-07-12T13:23:24;2.83;;;1.25;;
31692;SDS011;37436;53.230;6.614;2022-07-12T13:25:50;21.52;;;3.22;;
31692;SDS011;37436;53.230;6.614;2022-07-12T13:28:17;4.35;;;1.70;;
31692;SDS011;37436;53.230;6.614;2022-07-12T13:30:43;5.47;;;1.70;;
31692;SDS011;37436;53.230;6.614;2022-07-12T13:33:09;3.03;;;2.10;;
31692;SDS011;37436;53.230;6.614;2022-07-12T13:35:35;3.08;;;1.70;;
31692;SDS011;37436;53.230;6.614;2022-07-12T13:38:01;3.58;;;1.50;;
31692;SDS011;37436;53.230;6.614;2022-07-12T13:40:34;6.57;;;1.70;;
31692;SDS011;37436;53.230;6.614;2022-07-12T13:43:00;4.13;;;1.63;;
31692;SDS011;37436;53.230;6.614;2022-07-12T13:45:26;1.80;;;1.20;;
31692;SDS011;37436;53.230;6.614;2022-07-12T13:47:53;2.45;;;1.60;;
31692;SDS011;37436;53.230;6.614;2022-07-12T13:50:20;2.00;;;1.80;;
31692;SDS011;37436;53.230;6.614;2022-07-12T13:52:47;2.78;;;1.92;;
31692;SDS011;37436;53.230;6.614;2022-07-12T13:55:14;4.55;;;1.35;;
31692;SDS011;37436;53.230;6.614;2022-07-12T13:57:40;3.92;;;1.90;;
31692;SDS011;37436;53.230;6.614;2022-07-12T14:00:11;2.85;;;1.75;;
31692;SDS011;37436;53.230;6.614;2022-07-12T14:02:38;3.30;;;1.45;;
31692;SDS011;37436;53.230;6.614;2022-07-12T14:05:06;3.45;;;1.45;;
31692;SDS011;37436;53.230;6.614;2022-07-12T14:07:32;1.30;;;1.20;;
31692;SDS011;37436;53.230;6.614;2022-07-12T14:09:59;1.73;;;0.90;;
31692;SDS011;37436;53.230;6.614;2022-07-12T14:12:25;2.05;;;1.27;;
31692;SDS011;37436;53.230;6.614;2022-07-12T14:14:52;1.48;;;1.30;;
31692;SDS011;37436;53.230;6.614;2022-07-12T14:17:49;1.50;;;1.33;;
31692;SDS011;37436;53.230;6.614;2022-07-12T14:20:24;2.85;;;1.67;;
31692;SDS011;37436;53.230;6.614;2022-07-12T14:22:51;1.70;;;1.42;;
31692;SDS011;37436;53.230;6.614;2022-07-12T14:25:19;1.48;;;1.00;;
31692;SDS011;37436;53.230;6.614;2022-07-12T14:27:45;1.92;;;1.60;;
31692;SDS011;37436;53.230;6.614;2022-07-12T14:30:12;3.25;;;1.52;;
31692;SDS011;37436;53.230;6.614;2022-07-12T14:32:39;3.63;;;1.33;;
31692;SDS011;37436;53.230;6.614;2022-07-12T14:35:05;2.75;;;1.73;;
31692;SDS011;37436;53.230;6.614;2022-07-12T14:37:32;3.63;;;1.50;;
31692;SDS011;37436;53.230;6.614;2022-07-12T14:39:58;2.08;;;1.52;;
31692;SDS011;37436;53.230;6.614;2022-07-12T14:42:24;1.77;;;1.48;;
31692;SDS011;37436;53.230;6.614;2022-07-12T14:44:50;3.92;;;1.63;;
31692;SDS011;37436;53.230;6.614;2022-07-12T14:47:16;3.08;;;1.75;;
31692;SDS011;37436;53.230;6.614;2022-07-12T14:49:44;2.58;;;1.58;;
31692;SDS011;37436;53.230;6.614;2022-07-12T14:52:10;2.30;;;1.88;;
31692;SDS011;37436;53.230;6.614;2022-07-12T14:54:36;3.75;;;1.42;;
31692;SDS011;37436;53.230;6.614;2022-07-12T14:57:02;3.40;;;1.60;;
31692;SDS011;37436;53.230;6.614;2022-07-12T14:59:28;3.95;;;1.90;;
31692;SDS011;37436;53.230;6.614;2022-07-12T15:01:54;3.60;;;1.75;;
31692;SDS011;37436;53.230;6.614;2022-07-12T15:04:21;2.58;;;1.80;;
31692;SDS011;37436;53.230;6.614;2022-07-12T15:06:47;4.32;;;1.83;;
31692;SDS011;37436;53.230;6.614;2022-07-12T15:09:13;6.07;;;1.77;;
31692;SDS011;37436;53.230;6.614;2022-07-12T15:11:39;6.78;;;1.95;;
31692;SDS011;37436;53.230;6.614;2022-07-12T15:14:05;2.28;;;1.80;;
31692;SDS011;37436;53.230;6.614;2022-07-12T15:16:31;4.00;;;1.73;;
31692;SDS011;37436;53.230;6.614;2022-07-12T15:18:57;3.30;;;1.60;;